Time;durP1;ratioP1;P1;durP2;ratioP2;P2;SDS_P1;SDS_P2;PMS_P1;PMS_P2;Temp;Humidity;BMP_temperature;BMP_pressure;BME280_temperature;BME280_humidity;BME280_pressure;Samples;Min_cycle;Max_cycle;Signal;HPM_P1;HPM_P2
2021/09/17 04:15:20;;;;;;;12.02;8.93;;;;;;;12.08;100.00;98839.84;5979696;23;20015;-77
2021/09/17 04:17:45;;;;;;;13.35;8.68;;;;;;;12.08;100.00;98843.28;4956086;28;20039;-78
2021/09/17 04:20:11;;;;;;;11.90;8.63;;;;;;;12.14;100.00;98844.91;4955710;28;20110;-78
2021/09/17 04:22:37;;;;;;;10.25;8.88;;;;;;;12.17;100.00;98839.63;4955607;28;20495;-78
2021/09/17 04:25:04;;;;;;;9.73;8.73;;;;;;;12.34;100.00;98841.84;4955738;28;20019;-78
2021/09/17 04:27:30;;;;;;;11.65;8.30;;;;;;;12.40;100.00;98846.88;4955168;28;20034;-74
2021/09/17 04:29:55;;;;;;;11.48;8.25;;;;;;;12.25;100.00;98842.06;4996992;23;20047;-78
2021/09/17 04:32:20;;;;;;;10.65;8.55;;;;;;;12.22;100.00;98847.31;4966512;28;20394;-75
2021/09/17 04:34:46;;;;;;;9.00;7.45;;;;;;;12.15;100.00;98857.00;4963663;28;20019;-75
2021/09/17 04:37:11;;;;;;;11.98;8.43;;;;;;;12.05;100.00;98860.69;4963009;28;20095;-75
2021/09/17 04:39:36;;;;;;;10.32;8.43;;;;;;;12.03;100.00;98858.13;4965046;28;20027;-75
2021/09/17 04:42:02;;;;;;;13.88;9.75;;;;;;;12.07;100.00;98858.91;4959009;28;20118;-75
2021/09/17 04:44:28;;;;;;;15.77;9.18;;;;;;;11.99;100.00;98856.50;4962426;28;20018;-75
2021/09/17 04:46:53;;;;;;;12.93;8.52;;;;;;;12.05;100.00;98856.34;4960966;28;20038;-75
2021/09/17 04:49:18;;;;;;;11.45;9.27;;;;;;;11.96;100.00;98858.31;4961155;28;20027;-75
2021/09/17 04:51:44;;;;;;;9.43;8.52;;;;;;;11.94;100.00;98858.34;4963543;28;20026;-75
2021/09/17 04:54:10;;;;;;;13.88;9.15;;;;;;;11.92;100.00;98870.50;4956322;28;20038;-75
2021/09/17 04:56:38;;;;;;;16.70;9.45;;;;;;;11.92;100.00;98874.84;4968108;28;20033;-75
2021/09/17 04:59:04;;;;;;;10.77;8.57;;;;;;;11.96;100.00;98871.28;4955665;28;20027;-76
2021/09/17 05:01:29;;;;;;;12.93;8.95;;;;;;;11.88;100.00;98865.41;4957075;28;20341;-76
2021/09/17 05:03:55;;;;;;;10.57;9.50;;;;;;;11.87;100.00;98871.47;4960552;28;20403;-76
2021/09/17 05:06:20;;;;;;;9.68;8.68;;;;;;;11.87;100.00;98861.94;4959426;28;20077;-76
2021/09/17 05:08:45;;;;;;;13.45;7.85;;;;;;;11.95;100.00;98869.59;4960232;28;20061;-76
2021/09/17 05:11:11;;;;;;;13.88;8.55;;;;;;;11.94;100.00;98873.03;4966567;28;20448;-76
2021/09/17 05:13:36;;;;;;;11.00;8.60;;;;;;;12.01;100.00;98870.28;4964615;28;20030;-76
2021/09/17 05:16:01;;;;;;;14.05;8.32;;;;;;;12.04;100.00;98872.84;4957554;28;20030;-76
2021/09/17 05:18:27;;;;;;;11.57;8.35;;;;;;;12.08;100.00;98866.66;4958247;28;20030;-76
2021/09/17 05:20:52;;;;;;;10.13;8.27;;;;;;;12.15;100.00;98874.34;4963357;28;20035;-76
2021/09/17 05:23:17;;;;;;;8.75;7.90;;;;;;;12.21;100.00;98869.00;4962686;28;20039;-76
2021/09/17 05:25:43;;;;;;;8.82;7.82;;;;;;;12.31;100.00;98870.47;4958626;28;20098;-76
2021/09/17 05:28:08;;;;;;;11.57;9.10;;;;;;;12.28;100.00;98873.13;4963084;28;20045;-76
2021/09/17 05:30:33;;;;;;;9.35;7.45;;;;;;;12.41;100.00;98874.56;4958432;28;20027;-76
2021/09/17 05:32:59;;;;;;;12.52;7.60;;;;;;;12.53;100.00;98869.09;4959685;28;20023;-76
2021/09/17 05:35:24;;;;;;;9.25;8.18;;;;;;;12.51;100.00;98870.00;4953903;28;20031;-76
2021/09/17 05:37:49;;;;;;;8.60;7.72;;;;;;;12.53;100.00;98871.69;4958562;28;20054;-76
2021/09/17 05:40:15;;;;;;;12.15;7.72;;;;;;;12.65;100.00;98872.25;4962083;28;20030;-76
2021/09/17 05:42:40;;;;;;;8.82;6.72;;;;;;;12.56;100.00;98863.78;4961400;28;20456;-76
2021/09/17 05:45:06;;;;;;;17.58;7.97;;;;;;;12.64;100.00;98878.34;4960279;28;20057;-76
2021/09/17 05:47:31;;;;;;;10.23;8.10;;;;;;;12.65;100.00;98880.06;4963261;28;20030;-76
2021/09/17 05:49:57;;;;;;;8.40;7.40;;;;;;;12.61;100.00;98872.31;4959875;28;20019;-76
2021/09/17 05:52:23;;;;;;;7.65;6.80;;;;;;;12.56;100.00;98874.19;4959348;28;20086;-76
2021/09/17 05:54:48;;;;;;;10.10;7.55;;;;;;;12.57;100.00;98865.53;4955733;28;20061;-76
2021/09/17 05:57:14;;;;;;;9.00;6.90;;;;;;;12.67;100.00;98870.47;4960907;28;20477;-76
2021/09/17 05:59:39;;;;;;;7.82;6.88;;;;;;;12.73;100.00;98875.53;4964172;28;20068;-76
2021/09/17 06:02:07;;;;;;;8.75;5.82;;;;;;;12.83;100.00;98869.22;4958403;28;20113;-76
2021/09/17 06:04:32;;;;;;;7.18;6.47;;;;;;;12.95;100.00;98870.63;4959452;28;20388;-76
2021/09/17 06:06:58;;;;;;;8.02;6.38;;;;;;;12.97;100.00;98867.09;4957310;28;20023;-76
2021/09/17 06:09:23;;;;;;;11.05;6.30;;;;;;;13.27;100.00;98867.19;4967458;28;20050;-75
2021/09/17 06:11:49;;;;;;;7.43;6.63;;;;;;;13.32;100.00;98867.94;4960502;28;20046;-75
2021/09/17 06:14:14;;;;;;;8.77;6.85;;;;;;;13.13;100.00;98871.00;4954481;28;20015;-75
2021/09/17 06:16:39;;;;;;;8.70;6.82;;;;;;;13.23;100.00;98865.56;4959033;28;20022;-76
2021/09/17 06:19:05;;;;;;;11.02;7.05;;;;;;;13.15;100.00;98867.50;4964211;28;20035;-76
2021/09/17 06:21:31;;;;;;;11.65;6.75;;;;;;;13.12;100.00;98868.44;4956203;28;20054;-76
2021/09/17 06:23:57;;;;;;;7.70;6.85;;;;;;;13.18;100.00;98862.22;4949333;28;20414;-76
2021/09/17 06:26:23;;;;;;;7.20;6.45;;;;;;;13.21;100.00;98867.34;4965869;28;20119;-76
2021/09/17 06:28:48;;;;;;;9.80;6.47;;;;;;;13.07;100.00;98865.97;4964153;28;20055;-76
2021/09/17 06:31:14;;;;;;;10.30;7.05;;;;;;;13.10;100.00;98865.91;4966235;28;20045;-71
2021/09/17 06:33:39;;;;;;;11.32;7.10;;;;;;;13.25;100.00;98863.81;4957586;28;20091;-71
2021/09/17 06:36:05;;;;;;;7.85;6.70;;;;;;;13.40;100.00;98868.56;4961483;28;20038;-79
2021/09/17 06:38:30;;;;;;;10.45;7.72;;;;;;;13.55;98.77;98873.34;4965106;28;20435;-79
2021/09/17 06:40:55;;;;;;;13.63;7.15;;;;;;;13.46;99.30;98870.16;4959163;28;20049;-79
2021/09/17 06:43:21;;;;;;;7.13;6.53;;;;;;;13.57;99.14;98870.69;4958661;28;20023;-79
2021/09/17 06:45:46;;;;;;;10.90;7.45;;;;;;;13.17;100.00;98869.16;4964577;28;20369;-79
2021/09/17 06:48:11;;;;;;;9.70;6.72;;;;;;;13.14;100.00;98871.84;4966117;28;20106;-79
2021/09/17 06:50:37;;;;;;;9.75;7.40;;;;;;;13.05;100.00;98872.97;4962990;28;20023;-79
2021/09/17 06:53:03;;;;;;;7.90;7.10;;;;;;;13.08;100.00;98864.22;4957904;28;20126;-79
2021/09/17 06:55:30;;;;;;;14.57;7.57;;;;;;;13.13;100.00;98862.34;4963129;28;20059;-79
2021/09/17 06:58:00;;;;;;;12.98;8.10;;;;;;;13.21;100.00;98872.56;4967434;28;20029;-78
2021/09/17 07:00:28;;;;;;;6.78;6.13;;;;;;;13.42;99.86;98865.94;4971979;28;20029;-79
2021/09/17 07:02:54;;;;;;;9.43;6.82;;;;;;;13.72;99.00;98869.41;4956342;28;20055;-79
2021/09/17 07:05:20;;;;;;;8.40;7.50;;;;;;;13.53;98.03;98872.53;4961031;28;20019;-79
2021/09/17 07:07:45;;;;;;;7.38;6.68;;;;;;;13.71;98.05;98875.50;4959917;28;20069;-79
2021/09/17 07:10:13;;;;;;;13.85;7.15;;;;;;;13.69;97.90;98875.56;4959909;28;20027;-80
2021/09/17 07:12:39;;;;;;;7.30;6.40;;;;;;;13.81;97.25;98874.34;4971265;28;20022;-79
2021/09/17 07:15:06;;;;;;;8.57;6.60;;;;;;;14.01;96.44;98871.97;4960759;28;20058;-79
2021/09/17 07:17:31;;;;;;;8.48;6.63;;;;;;;14.08;96.38;98873.53;4963711;28;20034;-80
2021/09/17 07:19:57;;;;;;;7.75;6.28;;;;;;;14.14;95.94;98875.06;4965421;28;20054;-79
2021/09/17 07:22:22;;;;;;;7.82;7.07;;;;;;;14.17;95.10;98876.72;4960143;28;20045;-79
2021/09/17 07:24:48;;;;;;;8.73;6.43;;;;;;;14.33;95.59;98877.97;4962834;28;20102;-79
2021/09/17 07:27:14;;;;;;;7.93;6.85;;;;;;;14.50;94.41;98880.91;4958937;28;20485;-80
2021/09/17 07:29:39;;;;;;;9.85;6.13;;;;;;;14.67;93.50;98876.91;4958339;28;20039;-79
2021/09/17 07:32:06;;;;;;;6.80;6.13;;;;;;;14.60;93.96;98871.91;4965252;28;20101;-79
2021/09/17 07:34:31;;;;;;;12.45;7.15;;;;;;;14.83;93.34;98872.88;4958279;28;20034;-79
2021/09/17 07:36:57;;;;;;;7.60;6.32;;;;;;;14.98;92.73;98872.34;4960619;28;20158;-78
2021/09/17 07:39:22;;;;;;;12.23;6.97;;;;;;;15.10;91.55;98871.94;4958027;28;20078;-73
2021/09/17 07:41:47;;;;;;;7.97;6.25;;;;;;;15.01;91.70;98869.66;4959894;28;20031;-74
2021/09/17 07:44:13;;;;;;;10.05;5.90;;;;;;;15.35;90.55;98865.84;4960066;28;20042;-73
2021/09/17 07:46:38;;;;;;;7.32;6.57;;;;;;;15.53;89.11;98870.41;4967306;28;20101;-74
2021/09/17 07:49:03;;;;;;;10.43;6.20;;;;;;;15.49;89.57;98874.03;4958212;28;20019;-74
2021/09/17 07:51:29;;;;;;;7.78;6.57;;;;;;;15.55;88.83;98879.03;4956767;28;20163;-74
2021/09/17 07:53:54;;;;;;;12.60;7.38;;;;;;;15.34;88.64;98879.81;4966155;28;20082;-74
2021/09/17 07:56:19;;;;;;;14.35;6.53;;;;;;;15.20;89.45;98876.84;4965321;28;20031;-73
2021/09/17 07:58:45;;;;;;;6.90;5.80;;;;;;;15.48;88.83;98877.56;4966038;28;20054;-74
2021/09/17 08:01:10;;;;;;;10.32;7.18;;;;;;;15.42;89.08;98872.53;4960677;28;20035;-74
2021/09/17 08:03:35;;;;;;;10.95;6.60;;;;;;;15.52;89.09;98879.16;4960983;28;20022;-74
2021/09/17 08:06:01;;;;;;;10.55;6.95;;;;;;;15.24;89.85;98883.66;4962698;28;20123;-73
2021/09/17 08:08:28;;;;;;;7.97;6.43;;;;;;;15.11;90.35;98873.63;4960228;28;20035;-74
2021/09/17 08:10:53;;;;;;;12.55;6.88;;;;;;;15.22;90.58;98875.88;4969695;28;20506;-77
2021/09/17 08:13:19;;;;;;;8.80;6.65;;;;;;;15.15;89.91;98879.63;4963573;28;20089;-78
2021/09/17 08:15:44;;;;;;;9.30;7.32;;;;;;;14.95;91.01;98882.91;4965548;28;20399;-78
2021/09/17 08:18:09;;;;;;;10.57;7.20;;;;;;;15.05;90.96;98873.84;4956475;28;20023;-78
2021/09/17 08:20:37;;;;;;;13.25;6.55;;;;;;;15.67;88.62;98872.56;4956320;28;20031;-78
2021/09/17 08:23:02;;;;;;;10.82;6.95;;;;;;;15.50;88.32;98865.28;4963920;28;20027;-78
2021/09/17 08:25:28;;;;;;;8.93;7.80;;;;;;;15.46;87.82;98868.91;4961975;28;20370;-78
2021/09/17 08:27:54;;;;;;;9.05;7.20;;;;;;;15.37;88.37;98871.84;4960700;28;20031;-78
2021/09/17 08:30:19;;;;;;;10.85;7.10;;;;;;;16.00;87.43;98872.16;4957374;28;20078;-78
2021/09/17 08:32:44;;;;;;;8.65;6.75;;;;;;;16.29;83.60;98871.03;4965682;28;20030;-78
2021/09/17 08:35:11;;;;;;;10.35;6.65;;;;;;;16.37;84.48;98877.66;4966356;28;20027;-78
2021/09/17 08:37:38;;;;;;;8.40;7.05;;;;;;;16.77;82.48;98872.59;4956957;28;20030;-79
2021/09/17 08:40:04;;;;;;;8.10;6.70;;;;;;;16.76;81.53;98865.66;4958754;28;20464;-79
2021/09/17 08:42:31;;;;;;;13.13;6.55;;;;;;;16.89;82.03;98866.88;4954721;28;20023;-78
2021/09/17 08:44:57;;;;;;;8.50;6.60;;;;;;;16.58;81.64;98865.47;4961453;28;20109;-79
2021/09/17 08:47:23;;;;;;;8.75;6.70;;;;;;;16.73;81.34;98873.63;4956621;28;20511;-79
2021/09/17 08:49:49;;;;;;;11.63;6.90;;;;;;;16.90;80.68;98871.19;4954405;28;20035;-79
2021/09/17 08:52:15;;;;;;;14.82;7.07;;;;;;;17.02;78.37;98870.69;4965375;28;20081;-79
2021/09/17 08:54:41;;;;;;;7.70;5.75;;;;;;;17.13;78.11;98864.97;4961984;28;20027;-79
2021/09/17 08:57:06;;;;;;;7.22;5.43;;;;;;;17.50;77.46;98866.81;4961820;28;20498;-79
2021/09/17 08:59:32;;;;;;;8.43;4.80;;;;;;;17.68;74.32;98867.75;4956309;28;20023;-79
2021/09/17 09:02:21;;;;;;;12.50;5.55;;;;;;;18.28;73.44;98873.72;4957135;28;20027;-79
2021/09/17 09:04:55;;;;;;;7.93;5.83;;;;;;;18.21;72.36;98878.41;4955917;28;20106;-79
2021/09/17 09:07:35;;;;;;;6.82;5.38;;;;;;;18.23;71.58;98871.31;4962149;28;20035;-79
2021/09/17 09:10:05;;;;;;;4.65;4.25;;;;;;;17.97;72.54;98879.56;4957971;28;20468;-78
2021/09/17 09:12:31;;;;;;;9.60;4.43;;;;;;;18.12;68.94;98876.22;4959417;28;20369;-79
2021/09/17 09:15:13;;;;;;;4.88;3.90;;;;;;;18.22;67.43;98879.25;4955894;28;20023;-79
2021/09/17 09:17:39;;;;;;;5.60;3.55;;;;;;;18.28;66.59;98878.97;4962128;28;20031;-79
2021/09/17 09:20:23;;;;;;;4.60;4.15;;;;;;;18.47;67.07;98871.94;4964336;28;20101;-79
2021/09/17 09:23:12;;;;;;;5.55;3.55;;;;;;;18.41;65.43;98868.72;4962416;28;20153;-79
2021/09/17 09:25:47;;;;;;;;;;;;;;;18.74;64.04;98861.84;4962008;28;20010;-79
2021/09/17 09:28:15;;;;;;;4.47;4.05;;;;;;;19.27;63.34;98854.78;4958101;28;20395;-79
2021/09/17 09:30:41;;;;;;;4.75;4.20;;;;;;;19.30;61.46;98859.06;4966448;28;20026;-79
2021/09/17 09:33:29;;;;;;;6.03;5.35;;;;;;;19.04;61.59;98861.22;4963933;28;20045;-79
2021/09/17 09:35:57;;;;;;;6.28;5.68;;;;;;;19.65;61.22;98855.44;4957556;28;20026;-79
2021/09/17 09:38:46;;;;;;;6.90;5.70;;;;;;;19.46;60.48;98859.94;4960225;28;20504;-79
2021/09/17 09:41:23;;;;;;;7.10;5.00;;;;;;;20.14;59.47;98852.75;4957442;28;20393;-79
2021/09/17 09:44:16;;;;;;;7.93;5.70;;;;;;;19.72;61.75;98854.16;4960024;28;20035;-79
2021/09/17 09:46:44;;;;;;;9.82;6.03;;;;;;;19.77;58.17;98857.41;4957925;28;20026;-79
2021/09/17 09:49:13;;;;;;;7.43;6.50;;;;;;;20.14;57.45;98846.63;4964319;28;20497;-79
2021/09/17 09:51:38;;;;;;;8.90;6.13;;;;;;;19.45;60.70;98847.72;4960514;28;20054;-79
2021/09/17 09:54:05;;;;;;;7.10;5.68;;;;;;;20.16;58.88;98837.72;4965133;28;20297;-79
2021/09/17 09:56:32;;;;;;;7.07;5.50;;;;;;;20.60;57.02;98837.00;4964831;28;20023;-79
2021/09/17 09:59:01;;;;;;;7.75;5.78;;;;;;;20.66;57.64;98844.53;4959880;28;20027;-79
2021/09/17 10:01:28;;;;;;;10.43;5.47;;;;;;;20.75;56.48;98837.91;4960652;28;20118;-79
2021/09/17 10:03:56;;;;;;;7.05;4.72;;;;;;;20.89;56.67;98839.72;4960063;28;20090;-79
2021/09/17 10:06:24;;;;;;;8.93;5.70;;;;;;;20.48;56.46;98832.44;4953068;28;20054;-79
2021/09/17 10:08:52;;;;;;;7.93;5.85;;;;;;;20.80;55.58;98841.13;4960984;28;20102;-79
2021/09/17 10:11:17;;;;;;;11.13;5.50;;;;;;;19.79;57.70;98838.06;4957917;28;20045;-79
2021/09/17 10:13:42;;;;;;;10.25;5.25;;;;;;;20.56;57.64;98827.59;4960213;28;20023;-79
2021/09/17 10:16:08;;;;;;;9.02;4.72;;;;;;;20.09;58.99;98833.72;4956612;28;20027;-79
2021/09/17 10:18:36;;;;;;;8.35;5.32;;;;;;;19.77;59.68;98838.13;4964522;28;20385;-79
2021/09/17 10:21:02;;;;;;;7.72;4.50;;;;;;;21.12;57.23;98820.72;4968344;28;20069;-79
2021/09/17 10:23:32;;;;;;;4.68;3.80;;;;;;;21.51;56.54;98819.28;4966322;28;20054;-79
2021/09/17 10:26:16;;;;;;;5.95;3.92;;;;;;;22.64;52.68;98819.94;4961498;28;20057;-79
2021/09/17 10:29:07;;;;;;;8.00;3.92;;;;;;;22.20;50.75;98821.06;4961777;28;20015;-79
2021/09/17 10:31:43;;;;;;;5.60;3.70;;;;;;;22.18;50.20;98820.31;4959321;28;20424;-79
2021/09/17 10:34:40;;;;;;;8.73;3.83;;;;;;;22.00;52.97;98818.81;4958051;28;20035;-79
2021/09/17 10:37:07;;;;;;;6.82;4.13;;;;;;;22.56;48.33;98811.66;4960563;28;20043;-78
2021/09/17 10:39:33;;;;;;;6.20;4.07;;;;;;;22.24;51.11;98811.13;4961998;28;20069;-79
2021/09/17 10:42:05;;;;;;;8.30;4.13;;;;;;;21.22;52.04;98816.59;4960513;28;20027;-79
2021/09/17 10:44:31;;;;;;;7.93;4.15;;;;;;;22.25;49.98;98818.97;4960079;28;20026;-79
2021/09/17 10:46:56;;;;;;;3.67;3.38;;;;;;;22.69;48.46;98809.06;4963794;28;20038;-79
2021/09/17 10:49:21;;;;;;;6.03;3.60;;;;;;;23.58;47.88;98809.09;4958798;28;20141;-79
2021/09/17 10:51:47;;;;;;;5.70;3.72;;;;;;;23.99;46.69;98800.03;4958975;28;20063;-79
2021/09/17 10:54:22;;;;;;;3.83;3.40;;;;;;;24.51;44.56;98804.13;4967148;28;20027;-79
2021/09/17 10:56:48;;;;;;;9.40;7.57;;;;;;;23.79;46.33;98799.66;4961792;28;20031;-79
2021/09/17 10:59:21;;;;;;;8.53;4.27;;;;;;;23.57;47.87;98810.88;4955193;28;20626;-79
2021/09/17 11:01:55;;;;;;;5.75;3.60;;;;;;;23.65;49.95;98799.81;4955384;28;20304;-79
2021/09/17 11:04:27;;;;;;;6.90;4.10;;;;;;;23.84;46.71;98800.19;4955350;28;20055;-74
2021/09/17 11:06:55;;;;;;;5.72;4.30;;;;;;;23.26;46.16;98801.63;4964290;28;20094;-74
2021/09/17 11:09:41;;;;;;;5.97;4.07;;;;;;;22.19;51.71;98803.53;4954738;28;20029;-74
2021/09/17 11:12:18;;;;;;;26.70;15.70;;;;;;;22.99;46.44;98803.53;4962842;28;20114;-74
2021/09/17 11:14:43;;;;;;;5.55;3.60;;;;;;;22.97;47.32;98797.50;4956517;28;20031;-74
2021/09/17 11:17:09;;;;;;;7.00;2.97;;;;;;;22.80;47.70;98794.16;4962138;28;20399;-74
2021/09/17 11:19:34;;;;;;;4.80;4.10;;;;;;;22.15;47.99;98802.03;4958304;28;20476;-74
2021/09/17 11:22:01;;;;;;;5.63;3.40;;;;;;;22.16;48.41;98798.44;4957571;28;20034;-74
2021/09/17 11:24:28;;;;;;;5.22;3.55;;;;;;;22.58;48.58;98792.13;4959008;28;20034;-74
2021/09/17 11:26:56;;;;;;;6.90;3.15;;;;;;;22.76;50.00;98797.13;4959448;28;20035;-74
2021/09/17 11:29:23;;;;;;;4.75;3.33;;;;;;;23.02;46.88;98798.88;4955701;28;20031;-74
2021/09/17 11:31:59;;;;;;;3.38;2.63;;;;;;;23.21;48.40;98797.59;4962309;28;20035;-76
2021/09/17 11:34:26;;;;;;;3.80;2.83;;;;;;;22.87;46.55;98799.03;4959496;28;20101;-74
2021/09/17 11:37:03;;;;;;;5.55;3.38;;;;;;;21.67;49.86;98796.28;4955957;28;20118;-74
2021/09/17 11:39:37;;;;;;;2.83;2.10;;;;;;;22.63;46.75;98781.28;4955596;28;20489;-74
2021/09/17 11:42:05;;;;;;;3.63;2.53;;;;;;;22.11;44.71;98790.00;4957767;28;20028;-74
2021/09/17 11:44:44;;;;;;;3.97;2.45;;;;;;;20.31;48.39;98787.78;4957565;28;20030;-74
2021/09/17 11:47:18;;;;;;;3.05;2.20;;;;;;;20.88;51.13;98783.53;4955947;28;20026;-74
2021/09/17 11:49:45;;;;;;;3.63;2.70;;;;;;;20.72;51.67;98786.25;4957581;28;20388;-74
2021/09/17 11:52:16;;;;;;;3.03;2.72;;;;;;;21.09;51.25;98783.22;4965897;28;20034;-75
2021/09/17 11:54:54;;;;;;;6.47;1.92;;;;;;;21.28;46.84;98779.34;4958137;28;20043;-74
2021/09/17 11:57:19;;;;;;;3.03;2.17;;;;;;;21.46;46.97;98776.53;4955783;28;20037;-73
2021/09/17 11:59:46;;;;;;;6.97;1.90;;;;;;;21.52;45.05;98781.44;4956349;28;20098;-74
2021/09/17 12:02:18;;;;;;;2.03;1.70;;;;;;;21.39;46.07;98776.06;4961215;28;20038;-74
2021/09/17 12:04:53;;;;;;;3.75;1.73;;;;;;;21.36;48.15;98775.41;4960438;28;20608;-74
2021/09/17 12:07:19;;;;;;;2.08;1.95;;;;;;;21.54;48.09;98775.09;4957799;28;20039;-74
2021/09/17 12:09:45;;;;;;;4.85;1.83;;;;;;;20.11;49.06;98767.88;4959588;28;20030;-74
2021/09/17 12:12:13;;;;;;;3.47;1.83;;;;;;;20.91;47.54;98769.34;4955457;28;20023;-74
2021/09/17 12:14:48;;;;;;;3.15;1.83;;;;;;;19.81;49.34;98759.94;4967780;28;20089;-74
2021/09/17 12:17:14;;;;;;;2.25;1.67;;;;;;;21.39;47.54;98748.88;4957169;28;20377;-74
2021/09/17 12:20:14;;;;;;;4.38;1.77;;;;;;;22.35;45.90;98744.44;4962081;28;20023;-73
2021/09/17 12:22:44;;;;;;;2.03;1.77;;;;;;;22.32;45.89;98741.06;4948220;28;20024;-73
2021/09/17 12:25:15;;;;;;;4.57;2.22;;;;;;;22.79;42.10;98746.72;4957219;28;20059;-74
2021/09/17 12:27:42;;;;;;;4.82;2.20;;;;;;;22.39;45.63;98740.66;4960615;28;20397;-74
2021/09/17 12:30:14;;;;;;;4.15;2.05;;;;;;;23.11;43.08;98746.31;4956869;28;20031;-74
2021/09/17 12:32:40;;;;;;;2.90;2.65;;;;;;;22.76;43.76;98739.84;4955821;28;20023;-74
2021/09/17 12:35:16;;;;;;;18.42;12.45;;;;;;;22.94;39.58;98736.94;4959705;28;20027;-74
2021/09/17 12:37:52;;;;;;;3.28;1.98;;;;;;;22.44;44.81;98738.56;4960216;28;20027;-74
2021/09/17 12:40:21;;;;;;;2.30;1.50;;;;;;;22.84;42.90;98737.53;4954744;28;20031;-74
2021/09/17 12:43:14;;;;;;;2.97;1.80;;;;;;;22.84;42.54;98741.97;4956428;28;20030;-74
2021/09/17 12:45:43;;;;;;;2.53;1.40;;;;;;;23.12;41.98;98734.81;4960836;28;20035;-74
2021/09/17 12:48:09;;;;;;;2.88;2.08;;;;;;;23.57;41.74;98733.31;4963336;28;20098;-74
2021/09/17 12:50:44;;;;;;;3.92;1.83;;;;;;;24.38;38.38;98731.88;4955213;28;20087;-74
2021/09/17 12:53:18;;;;;;;1.48;1.13;;;;;;;24.31;39.44;98732.28;4961129;28;20027;-74
2021/09/17 12:55:46;;;;;;;4.45;1.50;;;;;;;23.22;40.14;98736.69;4964363;28;20176;-74
2021/09/17 12:58:20;;;;;;;1.63;1.20;;;;;;;21.80;42.46;98741.78;4965113;28;20027;-74
2021/09/17 13:00:50;;;;;;;3.05;1.70;;;;;;;21.40;46.95;98745.28;4957948;28;20547;-74
2021/09/17 13:03:18;;;;;;;4.20;1.83;;;;;;;21.54;49.16;98743.47;4954551;28;20027;-74
2021/09/17 13:05:48;;;;;;;2.95;1.92;;;;;;;21.55;48.04;98741.66;4956034;28;20019;-73
2021/09/17 13:08:15;;;;;;;4.95;2.00;;;;;;;21.24;49.55;98733.03;4956554;28;20042;-74
2021/09/17 13:10:41;;;;;;;6.40;2.30;;;;;;;21.95;46.56;98732.06;4962407;28;20408;-74
2021/09/17 13:13:07;;;;;;;3.28;1.65;;;;;;;22.44;45.32;98722.72;4957545;28;20027;-74
2021/09/17 13:15:33;;;;;;;3.33;2.22;;;;;;;21.07;49.28;98732.38;4958305;28;20050;-73
2021/09/17 13:17:59;;;;;;;3.80;1.90;;;;;;;20.93;49.39;98730.56;4954497;28;20070;-73
2021/09/17 13:20:26;;;;;;;2.00;1.83;;;;;;;19.45;51.09;98726.84;4955547;28;20038;-73
2021/09/17 13:22:52;;;;;;;2.85;2.03;;;;;;;20.35;51.87;98723.50;4954026;28;20110;-74
2021/09/17 13:25:19;;;;;;;3.88;1.88;;;;;;;20.30;49.52;98721.13;4955737;28;20074;-74
2021/09/17 13:27:49;;;;;;;6.60;1.73;;;;;;;20.33;47.59;98712.22;4953708;28;20102;-73
2021/09/17 13:30:16;;;;;;;3.58;1.60;;;;;;;21.13;47.21;98711.78;4953845;28;20023;-74
2021/09/17 13:32:41;;;;;;;1.60;1.42;;;;;;;20.98;46.82;98712.69;4953519;28;20062;-73
2021/09/17 13:35:08;;;;;;;3.22;1.70;;;;;;;20.78;47.48;98704.22;4967264;28;20054;-74
2021/09/17 13:37:34;;;;;;;1.77;1.33;;;;;;;20.64;44.82;98706.00;4963002;28;20022;-74
2021/09/17 13:40:03;;;;;;;2.15;1.40;;;;;;;20.27;47.55;98703.75;4954194;28;20031;-74
2021/09/17 13:42:29;;;;;;;3.10;1.40;;;;;;;20.19;48.05;98702.50;4962214;28;20037;-73
2021/09/17 13:44:54;;;;;;;2.38;1.20;;;;;;;20.61;47.86;98699.16;4909173;28;20321;-74
2021/09/17 13:47:20;;;;;;;3.90;1.90;;;;;;;21.33;45.56;98696.53;4956822;28;20452;-74
2021/09/17 13:49:45;;;;;;;8.18;1.67;;;;;;;20.92;46.16;98702.56;4953687;28;20487;-73
2021/09/17 13:52:10;;;;;;;4.35;1.85;;;;;;;19.92;48.23;98704.94;4957401;28;20029;-73
2021/09/17 13:54:36;;;;;;;4.43;1.55;;;;;;;20.03;49.29;98697.31;4958032;28;20109;-75
2021/09/17 13:57:04;;;;;;;1.63;1.48;;;;;;;20.31;49.58;98696.53;4959958;28;20039;-74
2021/09/17 13:59:29;;;;;;;1.67;1.45;;;;;;;19.80;48.12;98701.25;4958986;28;20388;-80
2021/09/17 14:01:55;;;;;;;1.92;1.52;;;;;;;19.64;47.07;98696.00;4957859;28;20034;-76
2021/09/17 14:04:20;;;;;;;1.63;1.30;;;;;;;20.36;46.66;98691.00;4958798;28;20100;-74
2021/09/17 14:06:46;;;;;;;2.42;1.25;;;;;;;19.91;47.58;98700.63;4959369;28;20026;-74
2021/09/17 14:09:13;;;;;;;3.80;1.38;;;;;;;20.69;46.43;98691.63;4954142;28;20027;-75
2021/09/17 14:11:38;;;;;;;1.70;1.30;;;;;;;20.42;46.00;98690.63;4953453;28;20027;-79
2021/09/17 14:14:04;;;;;;;1.80;1.25;;;;;;;20.63;44.75;98691.16;4959774;28;20034;-79
2021/09/17 14:16:29;;;;;;;1.30;1.20;;;;;;;20.34;46.67;98695.50;4959867;28;20518;-80
2021/09/17 14:18:56;;;;;;;1.40;1.30;;;;;;;20.11;48.37;98695.06;4962788;28;20026;-80
2021/09/17 14:21:21;;;;;;;3.42;1.40;;;;;;;20.26;48.28;98691.56;4953489;28;20030;-72
2021/09/17 14:23:47;;;;;;;2.17;1.67;;;;;;;20.21;48.08;98690.97;4955468;28;20019;-72
2021/09/17 14:26:12;;;;;;;2.17;1.50;;;;;;;20.08;46.44;98676.84;4954105;28;20477;-74
2021/09/17 14:28:37;;;;;;;1.50;1.40;;;;;;;20.42;47.04;98680.09;4958004;28;20043;-75
2021/09/17 14:31:03;;;;;;;1.85;1.70;;;;;;;20.17;47.87;98678.09;4960752;28;20035;-75
2021/09/17 14:33:28;;;;;;;2.65;1.40;;;;;;;20.40;47.02;98684.59;4963803;28;20043;-75
2021/09/17 14:35:53;;;;;;;2.38;2.05;;;;;;;19.96;49.92;98680.16;4957654;28;20035;-75
2021/09/17 14:38:19;;;;;;;2.40;1.50;;;;;;;19.59;49.10;98682.25;4954536;28;20019;-73
2021/09/17 14:40:44;;;;;;;1.92;1.83;;;;;;;19.29;48.29;98683.94;4960638;28;20026;-75
2021/09/17 14:43:10;;;;;;;1.67;1.33;;;;;;;19.34;47.91;98684.53;4956623;28;20019;-73
2021/09/17 14:45:35;;;;;;;2.05;1.38;;;;;;;19.19;48.94;98679.19;4956574;28;20019;-73
2021/09/17 14:48:00;;;;;;;2.33;1.60;;;;;;;18.81;51.18;98683.91;4960445;28;20039;-72
2021/09/17 14:50:26;;;;;;;2.60;1.45;;;;;;;18.22;56.73;98688.63;4967866;28;20031;-73
2021/09/17 14:52:51;;;;;;;3.88;1.50;;;;;;;18.09;60.37;98690.19;4964093;28;20022;-73
2021/09/17 14:55:16;;;;;;;2.30;1.75;;;;;;;17.94;62.76;98685.72;4965605;28;20441;-73
2021/09/17 14:57:42;;;;;;;3.28;1.75;;;;;;;17.65;64.81;98687.94;4967348;28;20384;-73
2021/09/17 15:00:08;;;;;;;2.83;1.83;;;;;;;17.61;65.03;98677.69;4961066;28;20019;-73
2021/09/17 15:02:33;;;;;;;3.85;1.83;;;;;;;17.42;65.90;98672.47;4958047;28;20015;-74
2021/09/17 15:04:59;;;;;;;2.75;2.13;;;;;;;17.07;68.30;98676.75;4960782;28;20102;-73
2021/09/17 15:07:24;;;;;;;2.40;1.67;;;;;;;16.88;68.64;98671.50;4964343;28;20031;-75
2021/09/17 15:09:50;;;;;;;3.55;2.13;;;;;;;16.78;69.06;98685.88;4961495;28;20126;-74
2021/09/17 15:12:16;;;;;;;7.63;2.17;;;;;;;16.84;68.72;98675.16;4967143;28;20023;-73
2021/09/17 15:14:41;;;;;;;2.35;2.00;;;;;;;16.64;69.02;98669.03;4960957;28;20021;-74
2021/09/17 15:17:09;;;;;;;3.25;2.17;;;;;;;16.74;68.69;98668.66;4956608;28;20023;-74
2021/09/17 15:19:35;;;;;;;5.40;2.30;;;;;;;16.80;68.18;98673.59;4962423;28;20023;-74
2021/09/17 15:22:00;;;;;;;2.85;2.03;;;;;;;17.10;65.97;98669.56;4965612;28;20444;-73
2021/09/17 15:24:25;;;;;;;2.10;1.90;;;;;;;17.40;64.46;98661.19;4965751;28;20027;-74
2021/09/17 15:26:51;;;;;;;2.10;1.80;;;;;;;17.59;64.37;98669.88;4970045;28;20031;-74
2021/09/17 15:29:16;;;;;;;3.83;1.60;;;;;;;17.68;62.33;98665.97;4957534;28;20497;-74
2021/09/17 15:31:42;;;;;;;5.07;1.67;;;;;;;18.06;61.57;98666.72;4966402;28;20023;-74
2021/09/17 15:34:07;;;;;;;6.63;2.08;;;;;;;18.55;59.11;98656.34;4965401;28;20034;-73
2021/09/17 15:36:32;;;;;;;5.68;1.88;;;;;;;18.79;60.25;98654.22;4954699;28;20023;-73
2021/09/17 15:38:58;;;;;;;2.10;1.80;;;;;;;18.87;59.71;98656.47;4964950;28;20037;-75
2021/09/17 15:41:23;;;;;;;10.80;2.00;;;;;;;18.98;57.75;98660.19;4965575;28;20046;-74
2021/09/17 15:43:48;;;;;;;2.63;1.88;;;;;;;18.94;58.28;98653.41;4963154;28;20038;-74
2021/09/17 15:46:14;;;;;;;2.97;1.48;;;;;;;19.04;53.52;98656.38;4962203;28;20024;-74